sensor_id;sensor_type;location;lat;lon;timestamp;temperature;humidity
21616;DHT22;10970;48.714;9.584;2022-07-29T00:02:09;18.40;99.90
21616;DHT22;10970;48.714;9.584;2022-07-29T00:04:35;18.40;99.90
21616;DHT22;10970;48.714;9.584;2022-07-29T00:07:02;18.30;99.90
21616;DHT22;10970;48.714;9.584;2022-07-29T00:09:27;18.20;99.90
21616;DHT22;10970;48.714;9.584;2022-07-29T00:11:55;18.20;99.90
21616;DHT22;10970;48.714;9.584;2022-07-29T00:14:22;18.20;99.90
21616;DHT22;10970;48.714;9.584;2022-07-29T00:16:47;18.20;99.90
21616;DHT22;10970;48.714;9.584;2022-07-29T00:19:13;18.20;99.90
21616;DHT22;10970;48.714;9.584;2022-07-29T00:21:38;18.20;99.90
21616;DHT22;10970;48.714;9.584;2022-07-29T00:24:04;18.20;99.90
21616;DHT22;10970;48.714;9.584;2022-07-29T00:26:30;18.20;99.90
21616;DHT22;10970;48.714;9.584;2022-07-29T00:28:59;18.30;99.90
21616;DHT22;10970;48.714;9.584;2022-07-29T00:31:25;18.30;99.90
21616;DHT22;10970;48.714;9.584;2022-07-29T00:33:51;18.40;99.90
21616;DHT22;10970;48.714;9.584;2022-07-29T00:36:17;18.30;99.90
21616;DHT22;10970;48.714;9.584;2022-07-29T00:38:42;18.30;99.90
21616;DHT22;10970;48.714;9.584;2022-07-29T00:41:11;18.30;99.90
21616;DHT22;10970;48.714;9.584;2022-07-29T00:43:37;18.40;99.90
21616;DHT22;10970;48.714;9.584;2022-07-29T00:46:03;18.40;99.90
21616;DHT22;10970;48.714;9.584;2022-07-29T00:48:29;18.40;99.90
21616;DHT22;10970;48.714;9.584;2022-07-29T00:50:56;18.40;99.90
21616;DHT22;10970;48.714;9.584;2022-07-29T00:53:23;18.40;99.90
21616;DHT22;10970;48.714;9.584;2022-07-29T00:55:50;18.40;99.90
21616;DHT22;10970;48.714;9.584;2022-07-29T00:58:15;18.40;99.90
21616;DHT22;10970;48.714;9.584;2022-07-29T01:00:41;18.40;99.90
21616;DHT22;10970;48.714;9.584;2022-07-29T01:03:08;18.50;99.90
21616;DHT22;10970;48.714;9.584;2022-07-29T01:05:34;18.50;99.90
21616;DHT22;10970;48.714;9.584;2022-07-29T01:08:00;18.50;99.90
21616;DHT22;10970;48.714;9.584;2022-07-29T01:10:27;18.50;99.90
21616;DHT22;10970;48.714;9.584;2022-07-29T01:12:56;18.40;99.90
21616;DHT22;10970;48.714;9.584;2022-07-29T01:15:23;18.30;99.90
21616;DHT22;10970;48.714;9.584;2022-07-29T01:18:11;18.30;99.90
21616;DHT22;10970;48.714;9.584;2022-07-29T01:20:58;18.20;99.90
21616;DHT22;10970;48.714;9.584;2022-07-29T01:32:07;18.20;99.90
21616;DHT22;10970;48.714;9.584;2022-07-29T01:34:54;18.20;99.90
21616;DHT22;10970;48.714;9.584;2022-07-29T01:39:55;18.20;99.90
21616;DHT22;10970;48.714;9.584;2022-07-29T01:47:43;18.10;99.90
21616;DHT22;10970;48.714;9.584;2022-07-29T01:50:12;18.10;99.90
21616;DHT22;10970;48.714;9.584;2022-07-29T01:52:49;18.10;99.90
21616;DHT22;10970;48.714;9.584;2022-07-29T01:55:20;18.10;99.90
21616;DHT22;10970;48.714;9.584;2022-07-29T02:00:15;18.00;99.90
21616;DHT22;10970;48.714;9.584;2022-07-29T02:02:43;17.90;99.90
21616;DHT22;10970;48.714;9.584;2022-07-29T02:05:12;17.80;99.90
21616;DHT22;10970;48.714;9.584;2022-07-29T02:07:41;17.80;99.90
21616;DHT22;10970;48.714;9.584;2022-07-29T02:10:08;17.70;99.90
21616;DHT22;10970;48.714;9.584;2022-07-29T02:12:35;17.70;99.90
21616;DHT22;10970;48.714;9.584;2022-07-29T02:15:03;17.60;99.90
21616;DHT22;10970;48.714;9.584;2022-07-29T02:17:43;17.60;99.90
21616;DHT22;10970;48.714;9.584;2022-07-29T02:20:09;17.60;99.90
21616;DHT22;10970;48.714;9.584;2022-07-29T02:22:38;17.50;99.90
21616;DHT22;10970;48.714;9.584;2022-07-29T02:25:06;17.50;99.90
21616;DHT22;10970;48.714;9.584;2022-07-29T02:27:33;17.50;99.90
21616;DHT22;10970;48.714;9.584;2022-07-29T02:30:01;17.50;99.90
21616;DHT22;10970;48.714;9.584;2022-07-29T02:32:28;17.50;99.90
21616;DHT22;10970;48.714;9.584;2022-07-29T02:34:54;17.50;99.90
21616;DHT22;10970;48.714;9.584;2022-07-29T02:37:21;17.40;99.90
21616;DHT22;10970;48.714;9.584;2022-07-29T02:39:48;17.30;99.90
21616;DHT22;10970;48.714;9.584;2022-07-29T02:42:17;17.20;99.90
21616;DHT22;10970;48.714;9.584;2022-07-29T02:44:43;17.20;99.90
21616;DHT22;10970;48.714;9.584;2022-07-29T02:49:55;17.10;99.90
21616;DHT22;10970;48.714;9.584;2022-07-29T02:55:01;17.20;99.90
21616;DHT22;10970;48.714;9.584;2022-07-29T02:57:54;17.10;99.90
21616;DHT22;10970;48.714;9.584;2022-07-29T03:00:23;17.10;99.90
21616;DHT22;10970;48.714;9.584;2022-07-29T03:02:52;17.10;99.90
21616;DHT22;10970;48.714;9.584;2022-07-29T03:05:20;17.00;99.90
21616;DHT22;10970;48.714;9.584;2022-07-29T03:07:51;17.10;99.90
21616;DHT22;10970;48.714;9.584;2022-07-29T03:10:18;17.00;99.90
21616;DHT22;10970;48.714;9.584;2022-07-29T03:17:37;17.00;99.90
21616;DHT22;10970;48.714;9.584;2022-07-29T03:20:03;17.10;99.90
21616;DHT22;10970;48.714;9.584;2022-07-29T03:37:06;16.90;99.90
21616;DHT22;10970;48.714;9.584;2022-07-29T03:39:36;16.90;99.90
21616;DHT22;10970;48.714;9.584;2022-07-29T03:47:00;16.90;99.90
21616;DHT22;10970;48.714;9.584;2022-07-29T03:49:28;16.80;99.90
21616;DHT22;10970;48.714;9.584;2022-07-29T03:56:48;16.70;99.90
21616;DHT22;10970;48.714;9.584;2022-07-29T03:59:17;16.60;99.90
21616;DHT22;10970;48.714;9.584;2022-07-29T04:04:11;16.60;99.90
21616;DHT22;10970;48.714;9.584;2022-07-29T04:06:45;16.60;99.90
21616;DHT22;10970;48.714;9.584;2022-07-29T04:09:11;16.60;99.90
21616;DHT22;10970;48.714;9.584;2022-07-29T04:11:39;16.60;99.90
21616;DHT22;10970;48.714;9.584;2022-07-29T04:16:31;16.60;99.90
21616;DHT22;10970;48.714;9.584;2022-07-29T04:26:17;16.70;99.90
21616;DHT22;10970;48.714;9.584;2022-07-29T04:28:43;16.70;99.90
21616;DHT22;10970;48.714;9.584;2022-07-29T04:31:09;16.50;99.90
21616;DHT22;10970;48.714;9.584;2022-07-29T04:33:35;16.50;99.90
21616;DHT22;10970;48.714;9.584;2022-07-29T04:36:01;16.60;99.90
21616;DHT22;10970;48.714;9.584;2022-07-29T04:38:26;16.60;99.90
21616;DHT22;10970;48.714;9.584;2022-07-29T04:40:52;16.50;99.90
21616;DHT22;10970;48.714;9.584;2022-07-29T04:43:18;16.50;99.90
21616;DHT22;10970;48.714;9.584;2022-07-29T04:45:43;16.60;99.90
21616;DHT22;10970;48.714;9.584;2022-07-29T04:48:09;16.70;99.90
21616;DHT22;10970;48.714;9.584;2022-07-29T04:50:38;16.80;99.90
21616;DHT22;10970;48.714;9.584;2022-07-29T04:53:03;16.90;99.90
21616;DHT22;10970;48.714;9.584;2022-07-29T04:55:29;17.00;99.90
21616;DHT22;10970;48.714;9.584;2022-07-29T05:02:48;17.20;99.90
21616;DHT22;10970;48.714;9.584;2022-07-29T05:05:14;17.20;99.90
21616;DHT22;10970;48.714;9.584;2022-07-29T05:07:40;17.20;99.90
21616;DHT22;10970;48.714;9.584;2022-07-29T05:14:59;17.20;99.90
21616;DHT22;10970;48.714;9.584;2022-07-29T05:17:25;17.30;99.90
21616;DHT22;10970;48.714;9.584;2022-07-29T05:19:51;17.40;99.90
21616;DHT22;10970;48.714;9.584;2022-07-29T05:22:20;17.40;99.90
21616;DHT22;10970;48.714;9.584;2022-07-29T05:24:46;17.50;99.90
21616;DHT22;10970;48.714;9.584;2022-07-29T05:27:12;17.60;99.90
21616;DHT22;10970;48.714;9.584;2022-07-29T05:29:37;17.70;99.90
21616;DHT22;10970;48.714;9.584;2022-07-29T05:32:04;17.80;99.90
21616;DHT22;10970;48.714;9.584;2022-07-29T05:34:30;17.80;99.90
21616;DHT22;10970;48.714;9.584;2022-07-29T05:36:56;18.00;99.90
21616;DHT22;10970;48.714;9.584;2022-07-29T05:39:23;18.20;99.90
21616;DHT22;10970;48.714;9.584;2022-07-29T05:41:49;18.50;99.90
21616;DHT22;10970;48.714;9.584;2022-07-29T05:44:15;18.50;99.90
21616;DHT22;10970;48.714;9.584;2022-07-29T05:49:07;18.60;99.90
21616;DHT22;10970;48.714;9.584;2022-07-29T05:51:33;18.60;99.90
21616;DHT22;10970;48.714;9.584;2022-07-29T05:53:59;18.60;99.90
21616;DHT22;10970;48.714;9.584;2022-07-29T05:56:24;18.60;99.90
21616;DHT22;10970;48.714;9.584;2022-07-29T05:58:50;18.50;99.90
21616;DHT22;10970;48.714;9.584;2022-07-29T06:01:16;18.50;99.90
21616;DHT22;10970;48.714;9.584;2022-07-29T06:03:41;18.40;99.90
21616;DHT22;10970;48.714;9.584;2022-07-29T06:06:08;18.50;99.90
21616;DHT22;10970;48.714;9.584;2022-07-29T06:08:34;18.60;99.90
21616;DHT22;10970;48.714;9.584;2022-07-29T06:11:01;18.80;99.90
21616;DHT22;10970;48.714;9.584;2022-07-29T06:13:26;18.90;99.90
21616;DHT22;10970;48.714;9.584;2022-07-29T06:15:52;19.00;99.90
21616;DHT22;10970;48.714;9.584;2022-07-29T06:18:18;19.30;99.90
21616;DHT22;10970;48.714;9.584;2022-07-29T06:20:44;19.40;99.90
21616;DHT22;10970;48.714;9.584;2022-07-29T06:23:10;19.50;99.90
21616;DHT22;10970;48.714;9.584;2022-07-29T06:25:36;19.60;99.90
21616;DHT22;10970;48.714;9.584;2022-07-29T06:28:02;19.60;99.90
21616;DHT22;10970;48.714;9.584;2022-07-29T06:30:28;19.50;99.90
21616;DHT22;10970;48.714;9.584;2022-07-29T06:32:54;19.50;99.90
21616;DHT22;10970;48.714;9.584;2022-07-29T06:35:20;19.40;99.90
21616;DHT22;10970;48.714;9.584;2022-07-29T06:37:47;19.40;99.90
21616;DHT22;10970;48.714;9.584;2022-07-29T06:40:12;19.40;99.90
21616;DHT22;10970;48.714;9.584;2022-07-29T06:42:57;19.50;99.90
21616;DHT22;10970;48.714;9.584;2022-07-29T06:45:22;19.60;99.90
21616;DHT22;10970;48.714;9.584;2022-07-29T06:47:49;19.70;99.90
21616;DHT22;10970;48.714;9.584;2022-07-29T06:50:15;19.80;99.90
21616;DHT22;10970;48.714;9.584;2022-07-29T06:52:41;20.00;99.90
21616;DHT22;10970;48.714;9.584;2022-07-29T06:55:07;20.10;99.90
21616;DHT22;10970;48.714;9.584;2022-07-29T06:57:33;20.20;99.90
21616;DHT22;10970;48.714;9.584;2022-07-29T06:59:59;20.40;99.90
21616;DHT22;10970;48.714;9.584;2022-07-29T07:02:25;20.50;99.90
21616;DHT22;10970;48.714;9.584;2022-07-29T07:04:51;20.80;99.90
21616;DHT22;10970;48.714;9.584;2022-07-29T07:07:17;20.60;99.90
21616;DHT22;10970;48.714;9.584;2022-07-29T07:09:43;20.40;99.90
21616;DHT22;10970;48.714;9.584;2022-07-29T07:12:08;20.60;99.90
21616;DHT22;10970;48.714;9.584;2022-07-29T07:14:34;20.80;99.90
21616;DHT22;10970;48.714;9.584;2022-07-29T07:17:00;20.90;99.90
21616;DHT22;10970;48.714;9.584;2022-07-29T07:19:26;21.00;99.90
21616;DHT22;10970;48.714;9.584;2022-07-29T07:21:53;21.30;99.90
21616;DHT22;10970;48.714;9.584;2022-07-29T07:24:18;21.50;99.90
21616;DHT22;10970;48.714;9.584;2022-07-29T07:26:44;21.70;99.90
21616;DHT22;10970;48.714;9.584;2022-07-29T07:29:10;22.00;99.90
21616;DHT22;10970;48.714;9.584;2022-07-29T07:31:37;22.10;99.90
21616;DHT22;10970;48.714;9.584;2022-07-29T07:34:03;22.30;99.90
21616;DHT22;10970;48.714;9.584;2022-07-29T07:36:29;22.30;99.90
21616;DHT22;10970;48.714;9.584;2022-07-29T07:38:54;22.30;99.90
21616;DHT22;10970;48.714;9.584;2022-07-29T07:41:21;22.60;99.90
21616;DHT22;10970;48.714;9.584;2022-07-29T07:43:46;22.90;99.90
21616;DHT22;10970;48.714;9.584;2022-07-29T07:46:12;23.40;99.90
21616;DHT22;10970;48.714;9.584;2022-07-29T07:48:38;24.20;99.90
21616;DHT22;10970;48.714;9.584;2022-07-29T07:51:03;23.90;99.90
21616;DHT22;10970;48.714;9.584;2022-07-29T07:53:29;23.70;99.90
21616;DHT22;10970;48.714;9.584;2022-07-29T07:55:55;23.40;99.90
21616;DHT22;10970;48.714;9.584;2022-07-29T07:58:21;22.90;99.90
21616;DHT22;10970;48.714;9.584;2022-07-29T08:00:47;22.60;99.90
21616;DHT22;10970;48.714;9.584;2022-07-29T08:03:13;22.60;99.90
21616;DHT22;10970;48.714;9.584;2022-07-29T08:05:40;23.10;99.90
21616;DHT22;10970;48.714;9.584;2022-07-29T08:08:06;23.50;99.90
21616;DHT22;10970;48.714;9.584;2022-07-29T08:10:32;23.80;99.90
21616;DHT22;10970;48.714;9.584;2022-07-29T08:13:17;24.10;99.90
21616;DHT22;10970;48.714;9.584;2022-07-29T08:15:43;24.10;99.90
21616;DHT22;10970;48.714;9.584;2022-07-29T08:18:10;24.20;99.90
21616;DHT22;10970;48.714;9.584;2022-07-29T08:20:36;24.70;99.90
21616;DHT22;10970;48.714;9.584;2022-07-29T08:23:04;25.20;99.90
21616;DHT22;10970;48.714;9.584;2022-07-29T08:25:32;25.40;99.90
21616;DHT22;10970;48.714;9.584;2022-07-29T08:27:58;25.80;99.90
21616;DHT22;10970;48.714;9.584;2022-07-29T08:30:24;25.90;99.90
21616;DHT22;10970;48.714;9.584;2022-07-29T08:32:50;26.00;99.90
21616;DHT22;10970;48.714;9.584;2022-07-29T08:35:19;26.00;99.90
21616;DHT22;10970;48.714;9.584;2022-07-29T08:37:45;26.00;99.90
21616;DHT22;10970;48.714;9.584;2022-07-29T08:40:11;26.00;99.90
21616;DHT22;10970;48.714;9.584;2022-07-29T08:42:37;25.80;99.90
21616;DHT22;10970;48.714;9.584;2022-07-29T08:45:04;25.80;99.90
21616;DHT22;10970;48.714;9.584;2022-07-29T08:47:30;26.20;99.90
21616;DHT22;10970;48.714;9.584;2022-07-29T08:49:56;26.20;99.90
21616;DHT22;10970;48.714;9.584;2022-07-29T08:52:25;26.40;99.90
21616;DHT22;10970;48.714;9.584;2022-07-29T08:54:52;26.30;99.90
21616;DHT22;10970;48.714;9.584;2022-07-29T08:57:19;26.30;99.90
21616;DHT22;10970;48.714;9.584;2022-07-29T08:59:46;26.30;99.90
21616;DHT22;10970;48.714;9.584;2022-07-29T09:02:19;26.30;99.90
21616;DHT22;10970;48.714;9.584;2022-07-29T09:04:45;26.90;99.90
21616;DHT22;10970;48.714;9.584;2022-07-29T09:07:15;27.30;99.90
21616;DHT22;10970;48.714;9.584;2022-07-29T09:09:42;27.40;99.90
21616;DHT22;10970;48.714;9.584;2022-07-29T09:12:09;27.40;99.90
21616;DHT22;10970;48.714;9.584;2022-07-29T09:14:40;27.40;99.90
21616;DHT22;10970;48.714;9.584;2022-07-29T09:17:06;27.40;99.90
21616;DHT22;10970;48.714;9.584;2022-07-29T09:19:34;27.30;99.90
21616;DHT22;10970;48.714;9.584;2022-07-29T09:22:02;27.50;99.90
21616;DHT22;10970;48.714;9.584;2022-07-29T09:27:00;27.30;99.90
21616;DHT22;10970;48.714;9.584;2022-07-29T09:29:26;27.70;99.90
21616;DHT22;10970;48.714;9.584;2022-07-29T09:31:53;27.80;99.90
21616;DHT22;10970;48.714;9.584;2022-07-29T09:34:27;27.60;99.90
21616;DHT22;10970;48.714;9.584;2022-07-29T09:36:55;27.50;99.90
21616;DHT22;10970;48.714;9.584;2022-07-29T09:41:57;27.60;99.90
21616;DHT22;10970;48.714;9.584;2022-07-29T09:44:24;27.70;99.90
21616;DHT22;10970;48.714;9.584;2022-07-29T09:49:18;27.20;99.90
21616;DHT22;10970;48.714;9.584;2022-07-29T09:51:45;26.60;99.90
21616;DHT22;10970;48.714;9.584;2022-07-29T09:56:49;26.90;99.90
21616;DHT22;10970;48.714;9.584;2022-07-29T09:59:15;27.40;99.90
21616;DHT22;10970;48.714;9.584;2022-07-29T10:01:41;27.50;99.90
21616;DHT22;10970;48.714;9.584;2022-07-29T10:04:07;27.30;99.90
21616;DHT22;10970;48.714;9.584;2022-07-29T10:06:33;27.30;99.90
21616;DHT22;10970;48.714;9.584;2022-07-29T10:09:08;27.20;99.90
21616;DHT22;10970;48.714;9.584;2022-07-29T10:11:35;26.90;99.90
21616;DHT22;10970;48.714;9.584;2022-07-29T10:14:03;26.80;99.90
21616;DHT22;10970;48.714;9.584;2022-07-29T10:16:29;27.00;99.90
21616;DHT22;10970;48.714;9.584;2022-07-29T10:18:58;27.00;99.90
21616;DHT22;10970;48.714;9.584;2022-07-29T10:21:27;27.20;99.90
21616;DHT22;10970;48.714;9.584;2022-07-29T10:23:53;27.30;99.90
21616;DHT22;10970;48.714;9.584;2022-07-29T10:26:19;27.40;99.90
21616;DHT22;10970;48.714;9.584;2022-07-29T10:28:45;27.30;99.90
21616;DHT22;10970;48.714;9.584;2022-07-29T10:31:28;27.10;99.90
21616;DHT22;10970;48.714;9.584;2022-07-29T10:37:20;26.80;99.90
21616;DHT22;10970;48.714;9.584;2022-07-29T10:40:04;26.80;99.90
21616;DHT22;10970;48.714;9.584;2022-07-29T10:42:53;27.20;99.90
21616;DHT22;10970;48.714;9.584;2022-07-29T10:45:21;27.50;99.90
21616;DHT22;10970;48.714;9.584;2022-07-29T10:47:47;28.00;99.90
21616;DHT22;10970;48.714;9.584;2022-07-29T10:50:13;28.30;99.90
21616;DHT22;10970;48.714;9.584;2022-07-29T10:55:36;27.90;99.90
21616;DHT22;10970;48.714;9.584;2022-07-29T11:00:40;27.30;99.90
21616;DHT22;10970;48.714;9.584;2022-07-29T11:03:05;27.40;99.90
21616;DHT22;10970;48.714;9.584;2022-07-29T11:05:54;27.50;99.90
21616;DHT22;10970;48.714;9.584;2022-07-29T11:08:22;27.50;99.90
21616;DHT22;10970;48.714;9.584;2022-07-29T11:10:53;27.60;99.90
21616;DHT22;10970;48.714;9.584;2022-07-29T11:13:44;27.60;99.90
21616;DHT22;10970;48.714;9.584;2022-07-29T11:16:16;27.60;99.90
21616;DHT22;10970;48.714;9.584;2022-07-29T11:21:36;27.50;99.90
21616;DHT22;10970;48.714;9.584;2022-07-29T11:26:42;27.30;99.90
21616;DHT22;10970;48.714;9.584;2022-07-29T11:29:20;27.20;99.90
21616;DHT22;10970;48.714;9.584;2022-07-29T11:31:51;27.00;99.90
21616;DHT22;10970;48.714;9.584;2022-07-29T11:34:28;27.00;99.90
21616;DHT22;10970;48.714;9.584;2022-07-29T11:39:36;26.50;99.90
21616;DHT22;10970;48.714;9.584;2022-07-29T11:47:31;25.90;99.90
21616;DHT22;10970;48.714;9.584;2022-07-29T11:49:59;25.60;99.90
21616;DHT22;10970;48.714;9.584;2022-07-29T11:52:39;25.50;99.90
21616;DHT22;10970;48.714;9.584;2022-07-29T11:55:11;25.40;99.90
21616;DHT22;10970;48.714;9.584;2022-07-29T11:57:49;25.30;99.90
21616;DHT22;10970;48.714;9.584;2022-07-29T12:00:33;25.20;99.90
21616;DHT22;10970;48.714;9.584;2022-07-29T12:03:04;25.10;99.90
21616;DHT22;10970;48.714;9.584;2022-07-29T12:10:35;23.70;99.90
21616;DHT22;10970;48.714;9.584;2022-07-29T12:13:01;23.70;99.90
21616;DHT22;10970;48.714;9.584;2022-07-29T12:15:26;23.70;99.90
21616;DHT22;10970;48.714;9.584;2022-07-29T12:17:52;23.70;99.90
21616;DHT22;10970;48.714;9.584;2022-07-29T12:20:28;23.80;99.90
21616;DHT22;10970;48.714;9.584;2022-07-29T12:22:56;23.80;99.90
21616;DHT22;10970;48.714;9.584;2022-07-29T12:25:23;23.90;99.90
21616;DHT22;10970;48.714;9.584;2022-07-29T12:28:03;24.00;99.90
21616;DHT22;10970;48.714;9.584;2022-07-29T12:30:37;24.10;99.90
21616;DHT22;10970;48.714;9.584;2022-07-29T12:33:11;24.30;99.90
21616;DHT22;10970;48.714;9.584;2022-07-29T12:35:37;24.40;99.90
21616;DHT22;10970;48.714;9.584;2022-07-29T12:38:04;24.20;99.90
21616;DHT22;10970;48.714;9.584;2022-07-29T12:40:29;24.10;99.90
21616;DHT22;10970;48.714;9.584;2022-07-29T12:43:08;24.10;99.90
21616;DHT22;10970;48.714;9.584;2022-07-29T12:45:42;23.90;99.90
21616;DHT22;10970;48.714;9.584;2022-07-29T12:48:09;23.80;99.90
21616;DHT22;10970;48.714;9.584;2022-07-29T12:50:50;23.70;99.90
21616;DHT22;10970;48.714;9.584;2022-07-29T12:53:16;23.70;99.90
21616;DHT22;10970;48.714;9.584;2022-07-29T12:55:48;23.90;99.90
21616;DHT22;10970;48.714;9.584;2022-07-29T12:58:35;24.20;99.90
21616;DHT22;10970;48.714;9.584;2022-07-29T13:01:13;24.40;99.90
21616;DHT22;10970;48.714;9.584;2022-07-29T13:03:57;24.50;99.90
21616;DHT22;10970;48.714;9.584;2022-07-29T13:06:43;24.30;99.90
21616;DHT22;10970;48.714;9.584;2022-07-29T13:09:16;24.20;99.90
21616;DHT22;10970;48.714;9.584;2022-07-29T13:11:47;24.00;99.90
21616;DHT22;10970;48.714;9.584;2022-07-29T13:14:31;23.90;99.90
21616;DHT22;10970;48.714;9.584;2022-07-29T13:17:18;23.80;99.90
21616;DHT22;10970;48.714;9.584;2022-07-29T13:19:48;23.70;99.90
21616;DHT22;10970;48.714;9.584;2022-07-29T13:22:20;23.50;99.90
21616;DHT22;10970;48.714;9.584;2022-07-29T13:27:15;23.10;99.90
21616;DHT22;10970;48.714;9.584;2022-07-29T13:29:41;22.80;99.90
21616;DHT22;10970;48.714;9.584;2022-07-29T13:32:07;22.60;99.90
21616;DHT22;10970;48.714;9.584;2022-07-29T13:34:33;22.30;99.90
21616;DHT22;10970;48.714;9.584;2022-07-29T13:36:58;22.30;99.90
21616;DHT22;10970;48.714;9.584;2022-07-29T13:39:24;22.10;99.90
21616;DHT22;10970;48.714;9.584;2022-07-29T13:41:50;22.00;99.90
21616;DHT22;10970;48.714;9.584;2022-07-29T13:44:16;21.90;99.90
21616;DHT22;10970;48.714;9.584;2022-07-29T13:46:42;21.60;99.90
21616;DHT22;10970;48.714;9.584;2022-07-29T13:49:07;21.50;99.90
21616;DHT22;10970;48.714;9.584;2022-07-29T13:51:33;21.40;99.90
21616;DHT22;10970;48.714;9.584;2022-07-29T13:53:59;21.40;99.90
21616;DHT22;10970;48.714;9.584;2022-07-29T13:56:24;21.60;99.90
21616;DHT22;10970;48.714;9.584;2022-07-29T13:58:50;22.00;99.90
21616;DHT22;10970;48.714;9.584;2022-07-29T14:01:16;22.10;99.90
21616;DHT22;10970;48.714;9.584;2022-07-29T14:03:41;22.30;99.90
21616;DHT22;10970;48.714;9.584;2022-07-29T14:06:08;22.50;99.90
21616;DHT22;10970;48.714;9.584;2022-07-29T14:08:34;22.40;99.90
21616;DHT22;10970;48.714;9.584;2022-07-29T14:11:00;22.30;99.90
21616;DHT22;10970;48.714;9.584;2022-07-29T14:13:26;22.20;99.90
21616;DHT22;10970;48.714;9.584;2022-07-29T14:32:45;21.60;99.90
21616;DHT22;10970;48.714;9.584;2022-07-29T14:53:13;21.60;99.90
21616;DHT22;10970;48.714;9.584;2022-07-29T14:55:39;21.70;99.90
21616;DHT22;10970;48.714;9.584;2022-07-29T14:58:06;21.90;99.90
21616;DHT22;10970;48.714;9.584;2022-07-29T15:00:32;21.90;99.90
21616;DHT22;10970;48.714;9.584;2022-07-29T15:02:59;21.80;99.90
21616;DHT22;10970;48.714;9.584;2022-07-29T15:05:26;21.90;99.90
21616;DHT22;10970;48.714;9.584;2022-07-29T15:07:51;21.80;99.90
21616;DHT22;10970;48.714;9.584;2022-07-29T15:10:17;21.70;99.90
21616;DHT22;10970;48.714;9.584;2022-07-29T15:12:43;21.80;99.90
21616;DHT22;10970;48.714;9.584;2022-07-29T15:15:09;21.80;99.90
21616;DHT22;10970;48.714;9.584;2022-07-29T15:17:38;21.90;99.90
21616;DHT22;10970;48.714;9.584;2022-07-29T15:20:04;22.00;99.90
21616;DHT22;10970;48.714;9.584;2022-07-29T15:22:30;22.00;99.90
21616;DHT22;10970;48.714;9.584;2022-07-29T15:24:55;22.00;99.90
21616;DHT22;10970;48.714;9.584;2022-07-29T15:27:21;22.20;99.90
21616;DHT22;10970;48.714;9.584;2022-07-29T15:29:47;22.30;99.90
21616;DHT22;10970;48.714;9.584;2022-07-29T15:32:13;22.20;99.90
21616;DHT22;10970;48.714;9.584;2022-07-29T15:34:39;22.20;99.90
21616;DHT22;10970;48.714;9.584;2022-07-29T15:37:05;22.10;99.90
21616;DHT22;10970;48.714;9.584;2022-07-29T15:39:31;22.00;99.90
21616;DHT22;10970;48.714;9.584;2022-07-29T15:41:57;22.00;99.90
21616;DHT22;10970;48.714;9.584;2022-07-29T15:44:24;21.90;99.90
21616;DHT22;10970;48.714;9.584;2022-07-29T15:46:50;21.90;99.90
21616;DHT22;10970;48.714;9.584;2022-07-29T15:49:31;21.90;99.90
21616;DHT22;10970;48.714;9.584;2022-07-29T15:52:02;21.90;99.90
21616;DHT22;10970;48.714;9.584;2022-07-29T15:54:29;21.90;99.90
21616;DHT22;10970;48.714;9.584;2022-07-29T15:56:55;21.90;99.90
21616;DHT22;10970;48.714;9.584;2022-07-29T15:59:21;21.90;99.90
21616;DHT22;10970;48.714;9.584;2022-07-29T16:01:47;21.90;99.90
21616;DHT22;10970;48.714;9.584;2022-07-29T16:04:13;21.90;99.90
21616;DHT22;10970;48.714;9.584;2022-07-29T16:06:39;21.90;99.90
21616;DHT22;10970;48.714;9.584;2022-07-29T16:09:05;22.00;99.90
21616;DHT22;10970;48.714;9.584;2022-07-29T16:11:30;22.00;99.90
21616;DHT22;10970;48.714;9.584;2022-07-29T16:13:57;22.00;99.90
21616;DHT22;10970;48.714;9.584;2022-07-29T16:16:23;22.00;99.90
21616;DHT22;10970;48.714;9.584;2022-07-29T16:18:49;22.00;99.90
21616;DHT22;10970;48.714;9.584;2022-07-29T16:21:15;22.10;99.90
21616;DHT22;10970;48.714;9.584;2022-07-29T16:23:41;22.00;99.90
21616;DHT22;10970;48.714;9.584;2022-07-29T16:26:06;22.20;99.90
21616;DHT22;10970;48.714;9.584;2022-07-29T16:28:32;22.20;99.90
21616;DHT22;10970;48.714;9.584;2022-07-29T16:30:58;22.30;99.90
21616;DHT22;10970;48.714;9.584;2022-07-29T16:33:24;22.40;99.90
21616;DHT22;10970;48.714;9.584;2022-07-29T16:35:50;22.30;99.90
21616;DHT22;10970;48.714;9.584;2022-07-29T16:38:16;22.40;99.90
21616;DHT22;10970;48.714;9.584;2022-07-29T16:40:41;22.40;99.90
21616;DHT22;10970;48.714;9.584;2022-07-29T16:43:07;22.40;99.90
21616;DHT22;10970;48.714;9.584;2022-07-29T16:45:34;22.40;99.90
21616;DHT22;10970;48.714;9.584;2022-07-29T16:48:01;22.40;99.90
21616;DHT22;10970;48.714;9.584;2022-07-29T16:50:27;22.50;99.90
21616;DHT22;10970;48.714;9.584;2022-07-29T16:52:54;22.40;99.90
21616;DHT22;10970;48.714;9.584;2022-07-29T16:55:19;22.50;99.90
21616;DHT22;10970;48.714;9.584;2022-07-29T16:57:45;22.50;99.90
21616;DHT22;10970;48.714;9.584;2022-07-29T17:00:11;22.50;99.90
21616;DHT22;10970;48.714;9.584;2022-07-29T17:02:37;22.50;99.90
21616;DHT22;10970;48.714;9.584;2022-07-29T17:05:07;22.50;99.90
21616;DHT22;10970;48.714;9.584;2022-07-29T17:07:33;22.50;99.90
21616;DHT22;10970;48.714;9.584;2022-07-29T17:09:59;22.50;99.90
21616;DHT22;10970;48.714;9.584;2022-07-29T17:14:52;22.40;99.90
21616;DHT22;10970;48.714;9.584;2022-07-29T17:19:43;22.30;99.90
21616;DHT22;10970;48.714;9.584;2022-07-29T17:22:09;22.30;99.90
21616;DHT22;10970;48.714;9.584;2022-07-29T17:27:00;22.30;99.90
21616;DHT22;10970;48.714;9.584;2022-07-29T17:29:26;22.30;99.90
21616;DHT22;10970;48.714;9.584;2022-07-29T17:31:52;22.20;99.90
21616;DHT22;10970;48.714;9.584;2022-07-29T17:34:18;22.20;99.90
21616;DHT22;10970;48.714;9.584;2022-07-29T17:36:43;22.10;99.90
21616;DHT22;10970;48.714;9.584;2022-07-29T17:39:09;22.10;99.90
21616;DHT22;10970;48.714;9.584;2022-07-29T17:41:36;22.00;99.90
21616;DHT22;10970;48.714;9.584;2022-07-29T17:44:02;21.90;99.90
21616;DHT22;10970;48.714;9.584;2022-07-29T17:46:28;21.90;99.90
21616;DHT22;10970;48.714;9.584;2022-07-29T17:48:55;21.90;99.90
21616;DHT22;10970;48.714;9.584;2022-07-29T17:51:25;21.90;99.90
21616;DHT22;10970;48.714;9.584;2022-07-29T17:53:51;21.80;99.90
21616;DHT22;10970;48.714;9.584;2022-07-29T17:56:17;21.80;99.90
21616;DHT22;10970;48.714;9.584;2022-07-29T17:58:43;21.80;99.90
21616;DHT22;10970;48.714;9.584;2022-07-29T18:01:10;21.70;99.90
21616;DHT22;10970;48.714;9.584;2022-07-29T18:03:36;21.70;99.90
21616;DHT22;10970;48.714;9.584;2022-07-29T18:06:02;21.70;99.90
21616;DHT22;10970;48.714;9.584;2022-07-29T18:08:28;21.60;99.90
21616;DHT22;10970;48.714;9.584;2022-07-29T18:10:55;21.50;99.90
21616;DHT22;10970;48.714;9.584;2022-07-29T18:13:21;21.50;99.90
21616;DHT22;10970;48.714;9.584;2022-07-29T18:15:47;21.50;99.90